createdAt,value
2023-03-06T00:03:08.581Z,24.99
2023-03-06T00:07:08.712Z,24.98
2023-03-06T00:11:08.868Z,24.95
2023-03-06T00:15:09.076Z,24.95
2023-03-06T00:19:09.270Z,24.94
2023-03-06T00:23:09.451Z,24.94
2023-03-06T00:27:09.562Z,24.92
2023-03-06T00:31:09.811Z,24.89
2023-03-06T00:35:09.933Z,24.91
2023-03-06T00:39:10.103Z,24.89
2023-03-06T00:43:10.343Z,24.89
2023-03-06T00:47:10.484Z,24.86
2023-03-06T00:51:13.791Z,24.88
2023-03-06T00:55:10.683Z,24.88
2023-03-06T00:59:10.627Z,24.88
2023-03-06T01:03:10.605Z,24.85
2023-03-06T01:07:10.542Z,24.85
2023-03-06T01:11:10.536Z,24.85
2023-03-06T01:15:10.533Z,24.81
2023-03-06T01:19:10.480Z,24.82
2023-03-06T01:23:10.458Z,24.81
2023-03-06T01:27:10.471Z,24.81
2023-03-06T01:31:10.395Z,24.81
2023-03-06T01:35:10.371Z,24.79
2023-03-06T01:39:10.324Z,24.77
2023-03-06T01:43:10.306Z,24.77
2023-03-06T01:47:10.288Z,24.81
2023-03-06T01:51:10.273Z,24.78
2023-03-06T01:55:10.215Z,24.79
2023-03-06T01:59:10.188Z,24.77
2023-03-06T02:03:10.123Z,24.74
2023-03-06T02:07:10.148Z,24.72
2023-03-06T02:11:10.144Z,24.75
2023-03-06T02:15:10.071Z,24.74
2023-03-06T02:19:10.021Z,24.72
2023-03-06T02:23:09.995Z,24.72
2023-03-06T02:27:09.977Z,24.72
2023-03-06T02:31:09.926Z,24.70
2023-03-06T02:35:09.876Z,24.71
2023-03-06T02:39:09.869Z,24.71
2023-03-06T02:43:09.786Z,24.70
2023-03-06T02:47:09.757Z,24.70
2023-03-06T02:51:09.970Z,24.67
2023-03-06T02:55:10.208Z,24.67
2023-03-06T02:59:10.447Z,24.68
2023-03-06T03:03:10.621Z,24.68
2023-03-06T03:07:10.591Z,24.67
2023-03-06T03:11:10.584Z,24.65
2023-03-06T03:15:10.547Z,24.67
2023-03-06T03:19:10.505Z,24.65
2023-03-06T03:23:10.494Z,24.65
2023-03-06T03:27:10.471Z,24.64
2023-03-06T03:31:10.483Z,24.65
2023-03-06T03:35:10.373Z,24.65
2023-03-06T03:39:10.349Z,24.65
2023-03-06T03:43:10.289Z,24.62
2023-03-06T03:47:10.360Z,24.64
2023-03-06T03:51:10.594Z,24.62
2023-03-06T03:55:10.820Z,24.64
2023-03-06T03:59:10.758Z,24.61
2023-03-06T04:03:10.723Z,24.61
2023-03-06T04:07:10.705Z,24.61
2023-03-06T04:11:10.677Z,24.61
2023-03-06T04:15:10.633Z,24.60
2023-03-06T04:19:10.615Z,24.60
2023-03-06T04:23:10.550Z,24.61
2023-03-06T04:27:10.488Z,24.61
2023-03-06T04:31:10.496Z,24.57
2023-03-06T04:35:10.469Z,24.58
2023-03-06T04:39:10.462Z,24.55
2023-03-06T04:43:10.426Z,24.54
2023-03-06T04:47:10.406Z,24.55
2023-03-06T04:51:10.329Z,24.55
2023-03-06T04:55:10.302Z,24.55
2023-03-06T04:59:10.254Z,24.54
2023-03-06T05:03:10.250Z,24.55
2023-03-06T05:07:10.202Z,24.54
2023-03-06T05:11:10.157Z,24.52
2023-03-06T05:15:10.256Z,24.51
2023-03-06T05:19:10.234Z,24.50
2023-03-06T05:23:10.173Z,24.54
2023-03-06T05:27:10.156Z,24.51
2023-03-06T05:31:10.103Z,24.50
2023-03-06T05:35:10.071Z,24.50
2023-03-06T05:39:10.040Z,24.50
2023-03-06T05:43:10.012Z,24.50
2023-03-06T05:47:09.995Z,24.51
2023-03-06T05:51:09.982Z,24.48
2023-03-06T05:55:09.898Z,24.48
2023-03-06T05:59:09.854Z,24.47
2023-03-06T06:03:10.146Z,24.50
2023-03-06T06:07:10.173Z,24.47
2023-03-06T06:11:10.338Z,24.48
2023-03-06T06:15:10.518Z,24.47
2023-03-06T06:19:10.758Z,24.46
2023-03-06T06:23:10.914Z,24.47
2023-03-06T06:27:10.959Z,24.47
2023-03-06T06:31:10.922Z,24.48
2023-03-06T06:35:10.825Z,24.38
2023-03-06T06:39:10.964Z,24.10
2023-03-06T06:43:10.774Z,23.66
2023-03-06T06:47:26.365Z,23.59
2023-03-06T06:51:11.690Z,23.69
2023-03-06T06:55:10.727Z,23.91
2023-03-06T06:59:16.465Z,24.14
2023-03-06T07:03:11.574Z,24.35
2023-03-06T07:07:10.594Z,24.54
2023-03-06T07:11:10.630Z,24.70
2023-03-06T07:15:10.845Z,24.79
2023-03-06T07:19:11.075Z,24.92
2023-03-06T07:23:11.203Z,25.04
2023-03-06T07:27:11.453Z,25.14
2023-03-06T07:31:11.473Z,25.22
2023-03-06T07:35:19.722Z,25.28
2023-03-06T07:39:12.386Z,25.36
2023-03-06T07:43:19.129Z,25.42
2023-03-06T07:47:12.315Z,25.54
2023-03-06T07:51:11.306Z,25.63
2023-03-06T07:55:11.248Z,25.69
2023-03-06T07:59:11.206Z,25.76
2023-03-06T08:03:11.226Z,25.80
2023-03-06T08:07:11.118Z,25.81
2023-03-06T08:11:11.125Z,25.87
2023-03-06T08:15:11.060Z,25.89
2023-03-06T08:19:11.038Z,25.89
2023-03-06T08:23:10.987Z,25.93
2023-03-06T08:27:11.059Z,25.97
2023-03-06T08:31:10.957Z,25.02
2023-03-06T08:35:10.928Z,23.65
2023-03-06T08:39:10.875Z,23.66
2023-03-06T08:43:13.060Z,23.96
2023-03-06T08:47:11.039Z,24.34
2023-03-06T08:51:10.870Z,24.67
2023-03-06T08:55:10.960Z,24.91
2023-03-06T08:59:10.793Z,25.11
2023-03-06T09:03:10.785Z,25.28
2023-03-06T09:07:10.780Z,25.40
2023-03-06T09:11:10.969Z,25.52
2023-03-06T09:15:10.759Z,25.62
2023-03-06T09:19:10.653Z,25.72
2023-03-06T09:23:10.605Z,25.76
2023-03-06T09:27:10.708Z,25.79
2023-03-06T09:31:10.743Z,25.56
2023-03-06T09:35:10.557Z,25.23
2023-03-06T09:39:10.589Z,24.95
2023-03-06T09:43:10.501Z,23.84
2023-03-06T09:47:10.588Z,23.84
2023-03-06T09:51:11.038Z,24.11
2023-03-06T09:55:10.756Z,24.42
2023-03-06T09:59:11.235Z,24.75
2023-03-06T10:03:11.127Z,25.06
2023-03-06T10:07:11.068Z,25.32
2023-03-06T10:11:11.055Z,25.58
2023-03-06T10:15:11.036Z,25.77
2023-03-06T10:19:10.997Z,25.83
2023-03-06T10:23:11.807Z,25.76
2023-03-06T10:27:10.959Z,25.70
2023-03-06T10:31:10.994Z,25.62
2023-03-06T10:35:10.959Z,25.21
2023-03-06T10:39:10.868Z,25.11
2023-03-06T10:43:12.042Z,25.36
2023-03-06T10:47:10.779Z,25.60
2023-03-06T10:51:18.034Z,25.83
2023-03-06T10:55:12.712Z,26.05
2023-03-06T10:59:10.730Z,26.20
2023-03-06T11:03:10.648Z,26.35
2023-03-06T11:07:10.677Z,26.47
2023-03-06T11:11:28.238Z,26.61
2023-03-06T11:15:11.801Z,26.73
2023-03-06T11:19:10.756Z,26.81
2023-03-06T11:23:10.857Z,26.88
2023-03-06T11:27:10.693Z,26.92
2023-03-06T11:31:10.613Z,26.58
2023-03-06T11:35:10.619Z,26.40
2023-03-06T11:39:10.520Z,26.43
2023-03-06T11:43:10.485Z,26.54
2023-03-06T11:47:10.479Z,26.67
2023-03-06T11:51:10.445Z,26.79
2023-03-06T11:55:10.431Z,26.94
2023-03-06T11:59:10.348Z,27.02
2023-03-06T12:03:10.387Z,26.98
2023-03-06T12:07:10.450Z,26.88
2023-03-06T12:11:10.552Z,26.85
2023-03-06T12:15:10.629Z,26.91
2023-03-06T12:19:10.664Z,27.01
2023-03-06T12:23:15.489Z,27.06
2023-03-06T12:27:10.765Z,27.05
2023-03-06T12:31:10.762Z,26.96
2023-03-06T12:35:10.851Z,26.88
2023-03-06T12:39:10.962Z,26.75
2023-03-06T12:43:10.988Z,26.70
2023-03-06T12:47:11.125Z,26.61
2023-03-06T12:51:11.270Z,26.56
2023-03-06T12:55:11.391Z,26.51
2023-03-06T12:59:11.488Z,26.48
2023-03-06T13:03:11.734Z,26.24
2023-03-06T13:07:11.782Z,25.35
2023-03-06T13:11:11.985Z,25.35
2023-03-06T13:15:12.146Z,25.52
2023-03-06T13:19:12.273Z,25.56
2023-03-06T13:23:12.306Z,25.81
2023-03-06T13:27:12.525Z,26.08
2023-03-06T13:31:26.145Z,26.26
2023-03-06T13:35:13.676Z,26.43
2023-03-06T13:39:12.625Z,26.56
2023-03-06T13:43:12.558Z,26.73
2023-03-06T13:47:12.530Z,26.77
2023-03-06T13:51:12.485Z,26.89
2023-03-06T13:55:12.486Z,26.92
2023-03-06T13:59:14.155Z,26.99
2023-03-06T14:03:12.633Z,26.94
2023-03-06T14:07:12.446Z,26.56
2023-03-06T14:11:12.588Z,26.08
2023-03-06T14:15:12.655Z,25.79
2023-03-06T14:19:12.639Z,25.96
2023-03-06T14:23:12.867Z,26.17
2023-03-06T14:27:13.004Z,26.41
2023-03-06T14:31:13.160Z,26.58
2023-03-06T14:35:13.200Z,26.70
2023-03-06T14:39:13.318Z,26.78
2023-03-06T14:43:13.617Z,26.96
2023-03-06T14:47:13.670Z,26.99
2023-03-06T14:51:13.375Z,27.12
2023-03-06T14:55:13.315Z,27.16
2023-03-06T14:59:13.261Z,27.25
2023-03-06T15:03:13.260Z,27.22
2023-03-06T15:07:13.228Z,27.25
2023-03-06T15:11:13.200Z,27.21
2023-03-06T15:15:13.133Z,27.28
2023-03-06T15:19:13.097Z,27.32
2023-03-06T15:23:13.040Z,27.53
2023-03-06T15:27:12.997Z,27.76
2023-03-06T15:31:12.999Z,27.57
2023-03-06T15:35:13.111Z,27.69
2023-03-06T15:39:13.225Z,27.57
2023-03-06T15:43:13.421Z,27.52
2023-03-06T15:47:13.544Z,27.45
2023-03-06T15:51:13.837Z,27.36
2023-03-06T15:55:13.959Z,27.30
2023-03-06T15:59:13.938Z,27.24
2023-03-06T16:03:13.875Z,27.21
2023-03-06T16:07:13.897Z,27.12
2023-03-06T16:11:13.932Z,27.08
2023-03-06T16:15:13.805Z,27.03
2023-03-06T16:19:20.329Z,26.96
2023-03-06T16:23:14.709Z,26.94
2023-03-06T16:27:13.716Z,26.88
2023-03-06T16:31:13.722Z,26.85
2023-03-06T16:35:13.591Z,26.81
2023-03-06T16:39:13.600Z,26.77
2023-03-06T16:43:13.720Z,26.73
2023-03-06T16:47:13.610Z,26.68
2023-03-06T16:51:13.674Z,26.65
2023-03-06T16:55:13.709Z,26.59
2023-03-06T16:59:13.857Z,26.58
2023-03-06T17:03:13.859Z,26.52
2023-03-06T17:07:14.004Z,26.51
2023-03-06T17:11:14.054Z,26.45
2023-03-06T17:15:14.193Z,26.41
2023-03-06T17:19:14.284Z,26.43
2023-03-06T17:23:14.333Z,26.38
2023-03-06T17:27:14.493Z,26.35
2023-03-06T17:31:14.602Z,26.33
2023-03-06T17:35:14.621Z,26.30
2023-03-06T17:39:14.730Z,26.27
2023-03-06T17:43:14.796Z,26.23
2023-03-06T17:47:14.924Z,26.21
2023-03-06T17:51:15.054Z,26.19
2023-03-06T17:55:15.167Z,26.16
2023-03-06T17:59:15.365Z,26.13
2023-03-06T18:03:15.508Z,26.08
2023-03-06T18:07:15.664Z,26.05
2023-03-06T18:11:15.854Z,26.03
2023-03-06T18:15:16.094Z,26.03
2023-03-06T18:19:16.266Z,26.00
2023-03-06T18:23:16.488Z,25.94
2023-03-06T18:27:16.692Z,25.94
2023-03-06T18:31:16.701Z,25.93
2023-03-06T18:35:16.639Z,25.90
2023-03-06T18:39:16.570Z,25.89
2023-03-06T18:43:16.534Z,25.84
2023-03-06T18:47:16.514Z,25.84
2023-03-06T18:51:16.477Z,25.81
2023-03-06T18:55:16.481Z,25.83
2023-03-06T18:59:18.689Z,25.80
2023-03-06T19:03:16.347Z,25.81
2023-03-06T19:07:16.351Z,25.76
2023-03-06T19:11:16.292Z,25.75
2023-03-06T19:15:16.301Z,25.75
2023-03-06T19:19:16.233Z,25.72
2023-03-06T19:23:16.170Z,25.73
2023-03-06T19:27:16.143Z,25.70
2023-03-06T19:31:16.148Z,25.68
2023-03-06T19:35:16.064Z,25.66
2023-03-06T19:39:16.076Z,25.65
2023-03-06T19:43:16.001Z,25.60
2023-03-06T19:47:16.015Z,25.59
2023-03-06T19:51:15.928Z,25.59
2023-03-06T19:55:15.963Z,25.56
2023-03-06T19:59:15.890Z,25.52
2023-03-06T20:03:15.807Z,25.53
2023-03-06T20:07:15.837Z,25.52
2023-03-06T20:11:15.798Z,25.48
2023-03-06T20:15:15.718Z,25.46
2023-03-06T20:19:15.724Z,25.48
2023-03-06T20:23:16.693Z,25.46
2023-03-06T20:27:15.651Z,25.43
2023-03-06T20:31:15.609Z,25.40
2023-03-06T20:35:15.546Z,25.38
2023-03-06T20:39:15.532Z,25.40
2023-03-06T20:43:15.507Z,25.33
2023-03-06T20:47:15.482Z,25.38
2023-03-06T20:51:15.422Z,25.33
2023-03-06T20:55:15.375Z,25.33
2023-03-06T20:59:15.362Z,25.29
2023-03-06T21:03:15.401Z,25.30
2023-03-06T21:07:15.430Z,25.29
2023-03-06T21:11:15.498Z,25.28
2023-03-06T21:15:15.592Z,25.26
2023-03-06T21:19:15.595Z,25.23
2023-03-06T21:23:15.686Z,25.22
2023-03-06T21:27:15.761Z,25.23
2023-03-06T21:31:15.943Z,25.22
2023-03-06T21:35:15.978Z,25.19
2023-03-06T21:39:16.052Z,25.19
2023-03-06T21:43:16.140Z,25.18
2023-03-06T21:47:16.253Z,25.16
2023-03-06T21:51:16.339Z,25.16
2023-03-06T21:55:16.469Z,25.15
2023-03-06T21:59:16.542Z,25.18
2023-03-06T22:03:16.651Z,25.12
2023-03-06T22:07:16.757Z,25.12
2023-03-06T22:11:16.881Z,25.12
2023-03-06T22:15:17.015Z,25.11
2023-03-06T22:19:17.152Z,25.11
2023-03-06T22:23:17.269Z,25.08
2023-03-06T22:27:17.404Z,25.08
2023-03-06T22:31:17.601Z,25.09
2023-03-06T22:35:17.713Z,25.04
2023-03-06T22:39:17.734Z,25.08
2023-03-06T22:43:17.908Z,25.04
2023-03-06T22:47:18.041Z,25.05
2023-03-06T22:51:18.121Z,25.02
2023-03-06T22:55:18.820Z,25.04
2023-03-06T22:59:18.455Z,25.02
2023-03-06T23:03:18.550Z,25.04
2023-03-06T23:07:18.726Z,24.99
2023-03-06T23:11:18.873Z,24.98
2023-03-06T23:15:19.073Z,24.98
2023-03-06T23:19:19.225Z,24.95
2023-03-06T23:23:19.417Z,24.95
2023-03-06T23:27:19.656Z,24.96
2023-03-06T23:31:19.840Z,24.95
2023-03-06T23:35:20.059Z,24.94
2023-03-06T23:39:20.164Z,24.95
2023-03-06T23:43:20.337Z,24.95
2023-03-06T23:47:20.562Z,24.91
2023-03-06T23:51:20.752Z,24.94
2023-03-06T23:55:20.983Z,24.88
2023-03-06T23:59:21.173Z,24.89
